Time;durP1;ratioP1;P1;durP2;ratioP2;P2;SDS_P1;SDS_P2;PMS_P1;PMS_P2;Temp;Humidity;BMP_temperature;BMP_pressure;BME280_temperature;BME280_humidity;BME280_pressure;Samples;Min_cycle;Max_cycle;Signal;HPM_P1;HPM_P2
2023/07/04 00:01:06;;;;;;;2.95;2.65;;;;;18.40;98344.00;;;;4997015;28;20104;-67
2023/07/04 00:03:34;;;;;;;3.40;2.22;;;;;18.30;98341.00;;;;5014798;28;20104;-68
2023/07/04 00:06:01;;;;;;;4.15;2.13;;;;;18.30;98341.00;;;;5013466;28;20050;-67
2023/07/04 00:08:29;;;;;;;6.18;2.60;;;;;18.30;98341.00;;;;5030075;28;20050;-67
2023/07/04 00:10:57;;;;;;;2.33;2.13;;;;;18.30;98344.00;;;;5029433;28;20050;-66
2023/07/04 00:13:24;;;;;;;2.72;2.25;;;;;18.20;98335.00;;;;4997191;28;20570;-67
2023/07/04 00:15:53;;;;;;;4.18;2.47;;;;;18.20;98333.00;;;;5029146;28;20128;-67
2023/07/04 00:18:20;;;;;;;2.47;2.10;;;;;18.20;98332.00;;;;5014586;28;20270;-67
2023/07/04 00:20:56;;;;;;;3.45;2.40;;;;;18.20;98335.00;;;;5029221;28;20046;-67
2023/07/04 00:23:25;;;;;;;4.78;2.67;;;;;18.10;98330.00;;;;5029822;28;20046;-67
2023/07/04 00:25:52;;;;;;;3.65;2.50;;;;;18.10;98327.00;;;;5029691;28;20076;-67
2023/07/04 00:28:21;;;;;;;3.63;2.40;;;;;18.10;98335.00;;;;5015988;28;20413;-66
2023/07/04 00:30:51;;;;;;;3.92;2.42;;;;;18.10;98340.00;;;;5018056;28;20041;-67
2023/07/04 00:33:24;;;;;;;5.18;3.17;;;;;18.10;98340.00;;;;5019458;28;20132;-67
2023/07/04 00:36:04;;;;;;;3.35;2.35;;;;;18.10;98337.00;;;;5018401;28;20172;-68
2023/07/04 00:38:32;;;;;;;5.05;2.15;;;;;18.10;98333.00;;;;5019903;28;20112;-67
2023/07/04 00:41:13;;;;;;;3.03;2.45;;;;;18.10;98342.00;;;;5015057;28;20052;-67
2023/07/04 00:44:08;;;;;;;5.80;2.65;;;;;18.10;98335.00;;;;5015354;28;20100;-67
2023/07/04 00:46:52;;;;;;;3.92;2.58;;;;;18.10;98343.00;;;;5014241;28;20120;-67
2023/07/04 00:49:42;;;;;;;3.25;2.67;;;;;18.00;98339.00;;;;4997743;28;20054;-67
2023/07/04 00:52:23;;;;;;;3.03;2.38;;;;;17.90;98339.00;;;;5021490;28;20054;-67
2023/07/04 00:55:05;;;;;;;5.13;2.97;;;;;17.80;98349.00;;;;5023512;28;20125;-67
2023/07/04 00:57:33;;;;;;;5.88;2.80;;;;;17.80;98343.00;;;;5042580;28;20120;-67
2023/07/04 01:00:20;;;;;;;3.58;2.30;;;;;17.80;98351.00;;;;5043497;28;20060;-66
2023/07/04 01:02:49;;;;;;;4.00;2.88;;;;;17.70;98350.00;;;;5013802;28;20049;-67
2023/07/04 01:05:33;;;;;;;5.90;2.83;;;;;17.70;98355.00;;;;4996610;28;20049;-67
2023/07/04 01:08:04;;;;;;;4.18;2.50;;;;;17.60;98357.00;;;;5028638;28;20052;-67
2023/07/04 01:10:36;;;;;;;4.63;2.70;;;;;17.60;98355.00;;;;5012001;28;20041;-67
2023/07/04 01:13:02;;;;;;;2.70;2.50;;;;;17.60;98347.00;;;;5029209;28;20066;-67
2023/07/04 01:15:30;;;;;;;3.47;3.03;;;;;17.50;98354.00;;;;5030056;28;20054;-67
2023/07/04 01:17:59;;;;;;;4.80;2.92;;;;;17.50;98346.00;;;;4999863;28;20058;-67
2023/07/04 01:20:26;;;;;;;4.72;3.13;;;;;17.50;98349.00;;;;5017082;28;20038;-67
2023/07/04 01:23:16;;;;;;;4.00;2.67;;;;;17.50;98358.00;;;;5035773;28;20042;-66
2023/07/04 01:26:05;;;;;;;3.45;2.80;;;;;17.40;98360.00;;;;5001550;28;20053;-67
2023/07/04 01:28:32;;;;;;;5.43;2.95;;;;;17.30;98360.00;;;;5014689;28;20457;-66
2023/07/04 01:30:59;;;;;;;4.82;2.75;;;;;17.30;98363.00;;;;5015702;28;20085;-66
2023/07/04 01:33:26;;;;;;;7.78;3.10;;;;;17.30;98364.00;;;;5015688;28;20050;-68
2023/07/04 01:35:53;;;;;;;3.03;2.55;;;;;17.30;98365.00;;;;5016239;28;20054;-66
2023/07/04 01:38:20;;;;;;;3.50;2.40;;;;;17.30;98368.00;;;;5032251;28;20315;-67
2023/07/04 01:40:47;;;;;;;4.18;2.70;;;;;17.30;98372.00;;;;5033730;28;20113;-67
2023/07/04 01:43:13;;;;;;;9.20;3.35;;;;;17.20;98369.00;;;;5036917;28;20129;-67
2023/07/04 01:45:40;;;;;;;5.57;3.40;;;;;17.20;98371.00;;;;5022611;28;20132;-67
2023/07/04 01:48:07;;;;;;;7.07;3.83;;;;;17.20;98377.00;;;;5038858;28;20649;-66
2023/07/04 01:50:34;;;;;;;4.70;3.00;;;;;17.20;98380.00;;;;5023345;28;20124;-67
2023/07/04 01:53:01;;;;;;;5.45;3.10;;;;;17.20;98385.00;;;;5022843;28;20051;-67
2023/07/04 01:55:27;;;;;;;5.45;3.10;;;;;17.20;98386.00;;;;5023837;28;20503;-66
2023/07/04 01:57:54;;;;;;;3.92;3.03;;;;;17.10;98383.00;;;;5025035;28;20053;-67
2023/07/04 02:00:22;;;;;;;4.28;2.90;;;;;17.10;98386.00;;;;5020569;28;20132;-68
2023/07/04 02:02:54;;;;;;;4.90;3.45;;;;;17.00;98394.00;;;;5020344;28;20054;-66
2023/07/04 02:05:21;;;;;;;4.13;3.45;;;;;17.00;98397.00;;;;5001967;28;20161;-67
2023/07/04 02:07:48;;;;;;;4.53;3.22;;;;;17.00;98393.00;;;;5033774;28;20121;-66
2023/07/04 02:10:15;;;;;;;9.80;3.50;;;;;17.00;98387.00;;;;4996798;28;20145;-67
2023/07/04 02:12:41;;;;;;;4.45;3.13;;;;;16.90;98403.00;;;;4998768;28;20404;-67
2023/07/04 02:15:08;;;;;;;4.72;3.17;;;;;16.90;98392.00;;;;5018168;28;20112;-67
2023/07/04 02:17:35;;;;;;;4.03;3.35;;;;;16.90;98398.00;;;;5032311;28;20052;-70
2023/07/04 02:20:03;;;;;;;4.80;3.13;;;;;16.90;98399.00;;;;5050377;28;20053;-68
2023/07/04 02:22:30;;;;;;;4.57;3.33;;;;;16.80;98401.00;;;;5036357;28;20069;-68
2023/07/04 02:24:57;;;;;;;6.60;3.65;;;;;16.80;98403.00;;;;5052287;28;20107;-67
2023/07/04 02:27:23;;;;;;;4.15;2.92;;;;;16.80;98410.00;;;;5032126;28;20045;-67
2023/07/04 02:29:50;;;;;;;4.95;3.55;;;;;16.80;98404.00;;;;5012124;28;20273;-67
2023/07/04 02:32:16;;;;;;;5.45;3.63;;;;;16.70;98408.00;;;;5028783;28;20045;-67
2023/07/04 02:34:43;;;;;;;6.13;3.58;;;;;16.70;98403.00;;;;5028501;28;20045;-66
2023/07/04 02:37:13;;;;;;;3.80;3.45;;;;;16.60;98406.00;;;;4996331;28;20046;-66
2023/07/04 02:39:40;;;;;;;6.15;3.70;;;;;16.60;98408.00;;;;4995549;28;20049;-66
2023/07/04 02:42:07;;;;;;;4.88;3.88;;;;;16.60;98408.00;;;;4996292;28;20050;-66
2023/07/04 02:44:34;;;;;;;3.92;3.25;;;;;16.50;98392.00;;;;5028430;28;20049;-67
2023/07/04 02:47:04;;;;;;;4.85;3.50;;;;;16.50;98398.00;;;;5011677;28;20062;-66
2023/07/04 02:49:35;;;;;;;5.13;3.70;;;;;16.50;98401.00;;;;4995168;28;20046;-66
2023/07/04 02:52:05;;;;;;;5.97;3.13;;;;;16.50;98405.00;;;;5027739;28;20089;-66
2023/07/04 02:54:31;;;;;;;3.83;3.42;;;;;16.50;98400.00;;;;5030380;28;20076;-68
2023/07/04 02:56:59;;;;;;;5.32;3.67;;;;;16.40;98401.00;;;;5014711;28;20049;-67
2023/07/04 02:59:26;;;;;;;5.63;3.83;;;;;16.40;98405.00;;;;5014044;28;20045;-67
2023/07/04 03:01:53;;;;;;;6.63;3.75;;;;;16.40;98411.00;;;;5014984;28;20046;-67
2023/07/04 03:04:21;;;;;;;5.53;3.58;;;;;16.40;98406.00;;;;5031546;28;20069;-67
2023/07/04 03:06:48;;;;;;;6.70;4.95;;;;;16.40;98403.00;;;;5014816;28;20045;-67
2023/07/04 03:09:15;;;;;;;5.95;4.40;;;;;16.30;98407.00;;;;5014199;28;20050;-67
2023/07/04 03:11:42;;;;;;;7.03;6.13;;;;;16.30;98414.00;;;;5015348;28;20046;-67
2023/07/04 03:14:09;;;;;;;4.88;4.07;;;;;16.30;98411.00;;;;5016689;28;20057;-66
2023/07/04 03:16:37;;;;;;;5.32;3.75;;;;;16.40;98411.00;;;;5035116;28;20060;-67
2023/07/04 03:19:05;;;;;;;6.85;3.65;;;;;16.40;98411.00;;;;5002997;28;20053;-66
2023/07/04 03:21:32;;;;;;;5.30;3.55;;;;;16.30;98413.00;;;;5036089;28;20045;-66
2023/07/04 03:24:00;;;;;;;5.10;3.63;;;;;16.20;98418.00;;;;5018212;28;20100;-66
2023/07/04 03:26:28;;;;;;;6.50;3.60;;;;;16.20;98409.00;;;;5001202;28;20536;-67
2023/07/04 03:28:55;;;;;;;5.22;4.00;;;;;16.20;98419.00;;;;5030894;28;20056;-66
2023/07/04 03:31:23;;;;;;;3.97;3.45;;;;;16.30;98415.00;;;;5030573;28;20516;-66
2023/07/04 03:33:50;;;;;;;7.28;3.45;;;;;16.30;98414.00;;;;4998023;28;20145;-67
2023/07/04 03:36:17;;;;;;;5.60;3.80;;;;;16.30;98416.00;;;;5015380;28;20041;-66
2023/07/04 03:38:44;;;;;;;7.53;4.55;;;;;16.30;98408.00;;;;5030108;28;20049;-66
2023/07/04 03:41:10;;;;;;;4.38;3.97;;;;;16.30;98414.00;;;;5029729;28;20290;-66
2023/07/04 03:43:38;;;;;;;5.22;4.05;;;;;16.40;98411.00;;;;5013751;28;20430;-66
2023/07/04 03:46:05;;;;;;;4.97;3.40;;;;;16.40;98406.00;;;;5015052;28;20045;-67
2023/07/04 03:48:32;;;;;;;9.20;4.57;;;;;16.40;98422.00;;;;4997538;28;20084;-66
2023/07/04 03:50:59;;;;;;;9.48;4.18;;;;;16.40;98419.00;;;;5029531;28;20070;-67
2023/07/04 03:53:25;;;;;;;6.78;4.88;;;;;16.50;98426.00;;;;5013692;28;20073;-66
2023/07/04 03:55:52;;;;;;;14.60;4.65;;;;;16.50;98430.00;;;;5029956;28;20080;-67
2023/07/04 03:58:19;;;;;;;7.72;4.93;;;;;16.50;98422.00;;;;4997469;28;20053;-67
2023/07/04 04:00:46;;;;;;;8.82;5.22;;;;;16.60;98419.00;;;;5013085;28;20137;-67
2023/07/04 04:03:13;;;;;;;8.73;4.95;;;;;16.50;98418.00;;;;5030062;28;20046;-67
2023/07/04 04:05:41;;;;;;;6.85;4.95;;;;;16.60;98422.00;;;;5013553;28;20080;-67
2023/07/04 04:08:08;;;;;;;7.05;5.07;;;;;16.60;98418.00;;;;5014448;28;20042;-67
2023/07/04 04:10:35;;;;;;;7.32;4.60;;;;;16.70;98419.00;;;;5029397;28;20121;-68
2023/07/04 04:13:01;;;;;;;8.40;5.50;;;;;16.70;98427.00;;;;5030024;28;20152;-68
2023/07/04 04:15:28;;;;;;;7.25;5.20;;;;;16.80;98425.00;;;;5014455;28;20132;-67
2023/07/04 04:17:55;;;;;;;7.28;5.38;;;;;16.80;98425.00;;;;5014447;28;20046;-68
2023/07/04 04:20:22;;;;;;;6.50;5.15;;;;;16.90;98437.00;;;;5029201;28;20107;-69
2023/07/04 04:22:49;;;;;;;10.52;6.60;;;;;17.00;98437.00;;;;5014376;28;20048;-68
2023/07/04 04:25:16;;;;;;;8.32;5.85;;;;;17.10;98434.00;;;;5029801;28;20074;-67
2023/07/04 04:27:46;;;;;;;10.40;6.03;;;;;17.20;98431.00;;;;5029768;28;20424;-67
2023/07/04 04:30:13;;;;;;;8.70;5.03;;;;;17.30;98435.00;;;;5028660;28;20130;-67
2023/07/04 04:32:40;;;;;;;8.75;5.45;;;;;17.30;98435.00;;;;5013217;28;20116;-67
2023/07/04 04:35:08;;;;;;;7.60;5.63;;;;;17.40;98439.00;;;;5014112;28;20042;-66
2023/07/04 04:37:35;;;;;;;7.20;5.22;;;;;17.50;98443.00;;;;5014735;28;20084;-69
2023/07/04 04:40:04;;;;;;;8.40;5.65;;;;;17.50;98441.00;;;;5013957;28;20491;-66
2023/07/04 04:42:33;;;;;;;5.85;5.25;;;;;17.60;98451.00;;;;5013955;28;20041;-66
2023/07/04 04:45:00;;;;;;;7.35;5.28;;;;;17.70;98444.00;;;;4996986;28;20437;-67
2023/07/04 04:47:32;;;;;;;8.18;5.47;;;;;17.80;98449.00;;;;5014074;28;20052;-66
2023/07/04 04:50:03;;;;;;;8.55;5.43;;;;;17.80;98458.00;;;;5013799;28;20042;-66
2023/07/04 04:52:33;;;;;;;8.57;5.70;;;;;17.90;98461.00;;;;5014562;28;20049;-67
2023/07/04 04:55:02;;;;;;;7.05;5.70;;;;;18.00;98457.00;;;;5012368;28;20058;-67
2023/07/04 04:57:30;;;;;;;8.50;4.95;;;;;18.10;98458.00;;;;5012763;28;20050;-66
2023/07/04 04:59:59;;;;;;;10.63;5.75;;;;;18.20;98461.00;;;;5013454;28;20053;-66
2023/07/04 05:02:30;;;;;;;9.52;6.10;;;;;18.30;98455.00;;;;5029228;28;20470;-67
2023/07/04 05:04:59;;;;;;;11.63;6.88;;;;;18.30;98464.00;;;;5029589;28;20037;-67
2023/07/04 05:07:26;;;;;;;16.75;6.78;;;;;18.40;98462.00;;;;4996623;28;20049;-67
2023/07/04 05:09:54;;;;;;;11.20;5.70;;;;;18.40;98461.00;;;;5011963;28;20073;-66
2023/07/04 05:12:21;;;;;;;8.45;5.22;;;;;18.50;98457.00;;;;5028807;28;20486;-67
2023/07/04 05:14:48;;;;;;;9.07;5.95;;;;;18.50;98466.00;;;;5028656;28;20053;-67
2023/07/04 05:17:15;;;;;;;9.75;4.53;;;;;18.50;98458.00;;;;5012445;28;20145;-67
2023/07/04 05:19:41;;;;;;;7.50;4.90;;;;;18.50;98461.00;;;;5028294;28;20042;-68
2023/07/04 05:22:08;;;;;;;8.88;5.32;;;;;18.50;98454.00;;;;5012381;28;20053;-70
2023/07/04 05:24:35;;;;;;;10.27;5.20;;;;;18.50;98461.00;;;;5012908;28;20142;-68
2023/07/04 05:27:02;;;;;;;7.68;4.57;;;;;18.50;98464.00;;;;5012109;28;20060;-68
2023/07/04 05:29:28;;;;;;;10.65;5.47;;;;;18.50;98464.00;;;;5012362;28;20046;-69
2023/07/04 05:31:55;;;;;;;10.35;4.95;;;;;18.50;98463.00;;;;5014613;28;20034;-68
2023/07/04 05:34:23;;;;;;;11.52;4.78;;;;;18.50;98465.00;;;;5012766;28;20054;-68
2023/07/04 05:36:49;;;;;;;7.95;4.60;;;;;18.60;98464.00;;;;5029869;28;20042;-67
2023/07/04 05:39:16;;;;;;;9.98;5.20;;;;;18.60;98468.00;;;;5013848;28;20046;-68
2023/07/04 05:41:43;;;;;;;9.98;4.85;;;;;18.70;98462.00;;;;5012360;28;20125;-68
2023/07/04 05:44:11;;;;;;;7.68;4.18;;;;;18.80;98475.00;;;;5013475;28;20046;-69
2023/07/04 05:46:38;;;;;;;8.38;4.32;;;;;18.80;98475.00;;;;5012742;28;20458;-69
2023/07/04 05:49:07;;;;;;;7.53;4.60;;;;;18.80;98470.00;;;;5029183;28;20117;-69
2023/07/04 05:51:34;;;;;;;9.55;4.40;;;;;18.80;98472.00;;;;4996326;28;20046;-68
2023/07/04 05:54:00;;;;;;;7.93;3.95;;;;;18.80;98465.00;;;;5012517;28;20050;-68
2023/07/04 05:56:30;;;;;;;7.72;4.45;;;;;18.80;98469.00;;;;5013640;28;20042;-69
2023/07/04 05:58:59;;;;;;;7.78;4.07;;;;;19.00;98474.00;;;;4995487;28;20057;-68
2023/07/04 06:01:36;;;;;;;8.90;4.70;;;;;19.10;98471.00;;;;5013035;28;20034;-68
2023/07/04 06:04:07;;;;;;;12.85;5.90;;;;;19.20;98468.00;;;;5013124;28;20122;-67
2023/07/04 06:06:39;;;;;;;7.03;4.18;;;;;19.20;98472.00;;;;5028021;28;20049;-67
2023/07/04 06:09:11;;;;;;;11.88;4.75;;;;;19.10;98477.00;;;;5012181;28;20040;-68
2023/07/04 06:11:45;;;;;;;10.23;4.50;;;;;19.20;98474.00;;;;5011758;28;20052;-69
2023/07/04 06:14:17;;;;;;;8.00;4.00;;;;;19.20;98477.00;;;;5012661;28;20733;-67
2023/07/04 06:16:44;;;;;;;8.23;4.07;;;;;19.30;98484.00;;;;5027800;28;20406;-67
2023/07/04 06:19:11;;;;;;;9.45;3.60;;;;;19.40;98488.00;;;;5012386;28;20041;-67
2023/07/04 06:21:38;;;;;;;9.30;3.78;;;;;19.40;98482.00;;;;4995867;28;20054;-67
2023/07/04 06:24:10;;;;;;;8.70;3.85;;;;;19.50;98481.00;;;;5027309;28;20069;-67
2023/07/04 06:26:37;;;;;;;8.82;3.90;;;;;19.50;98477.00;;;;5011033;28;20554;-67
2023/07/04 06:29:04;;;;;;;10.65;4.00;;;;;19.60;98476.00;;;;5009704;28;20049;-68
2023/07/04 06:31:31;;;;;;;8.88;3.38;;;;;19.70;98479.00;;;;4994677;28;20038;-67
2023/07/04 06:33:58;;;;;;;7.88;2.85;;;;;19.70;98489.00;;;;5010731;28;20144;-67
2023/07/04 06:36:25;;;;;;;5.63;2.72;;;;;19.60;98485.00;;;;5012245;28;20068;-67
2023/07/04 06:38:52;;;;;;;6.13;3.67;;;;;19.60;98478.00;;;;5012171;28;20149;-67
2023/07/04 06:41:19;;;;;;;5.38;2.63;;;;;19.60;98482.00;;;;5027087;28;20050;-70
2023/07/04 06:43:47;;;;;;;7.88;2.97;;;;;19.70;98477.00;;;;4994686;28;20152;-66
2023/07/04 06:46:19;;;;;;;10.98;2.92;;;;;19.60;98482.00;;;;5011895;28;20490;-66
2023/07/04 06:48:47;;;;;;;8.45;3.45;;;;;19.80;98496.00;;;;5011512;28;20132;-66
2023/07/04 06:51:15;;;;;;;8.70;3.15;;;;;19.90;98488.00;;;;5027233;28;20046;-66
2023/07/04 06:53:42;;;;;;;8.23;3.35;;;;;20.00;98495.00;;;;5011709;28;20100;-66
2023/07/04 06:56:11;;;;;;;10.10;3.20;;;;;20.00;98503.00;;;;5027780;28;20498;-67
2023/07/04 06:58:41;;;;;;;9.80;3.30;;;;;20.00;98492.00;;;;4995209;28;20085;-67
2023/07/04 07:01:10;;;;;;;6.78;3.00;;;;;20.00;98501.00;;;;5010726;28;20141;-66
2023/07/04 07:03:38;;;;;;;5.90;3.25;;;;;20.10;98499.00;;;;5011124;28;20057;-68
2023/07/04 07:06:07;;;;;;;6.93;3.13;;;;;20.10;98503.00;;;;5027474;28;20049;-67
2023/07/04 07:08:35;;;;;;;8.05;3.30;;;;;20.10;98502.00;;;;5010806;28;20038;-67
2023/07/04 07:11:05;;;;;;;10.65;3.45;;;;;20.20;98511.00;;;;5010417;28;20080;-66
2023/07/04 07:13:32;;;;;;;5.38;2.92;;;;;20.30;98518.00;;;;5026797;28;20402;-66
2023/07/04 07:16:11;;;;;;;13.57;3.50;;;;;20.40;98507.00;;;;5026539;28;20050;-66
2023/07/04 07:18:39;;;;;;;7.88;2.80;;;;;20.40;98503.00;;;;5026939;28;20049;-67
2023/07/04 07:21:10;;;;;;;10.25;3.22;;;;;20.50;98500.00;;;;5026405;28;20128;-66
2023/07/04 07:23:37;;;;;;;10.15;3.30;;;;;20.50;98504.00;;;;5010336;28;20060;-67
2023/07/04 07:26:06;;;;;;;7.80;3.10;;;;;20.60;98503.00;;;;5010687;28;20048;-66
2023/07/04 07:28:38;;;;;;;5.60;3.17;;;;;20.70;98513.00;;;;5011290;28;20057;-67
2023/07/04 07:31:11;;;;;;;7.10;3.33;;;;;20.80;98513.00;;;;5027262;28;20046;-68
2023/07/04 07:33:41;;;;;;;9.13;3.38;;;;;20.90;98512.00;;;;5011821;28;20574;-68
2023/07/04 07:36:32;;;;;;;6.88;3.20;;;;;21.10;98519.00;;;;5011988;28;20046;-68
2023/07/04 07:39:02;;;;;;;6.90;3.58;;;;;21.10;98517.00;;;;5011673;28;20042;-67
2023/07/04 07:41:36;;;;;;;6.70;3.28;;;;;21.20;98517.00;;;;5014972;28;20042;-68
2023/07/04 07:44:04;;;;;;;;;;;;;21.20;98512.00;;;;5015482;28;20425;-68
2023/07/04 07:46:30;;;;;;;8.27;3.10;;;;;21.30;98518.00;;;;5016562;28;19921;-68
2023/07/04 07:48:58;;;;;;;7.10;3.33;;;;;21.30;98514.00;;;;5017404;28;20052;-68
2023/07/04 07:51:25;;;;;;;7.30;3.30;;;;;21.40;98518.00;;;;5017461;28;20042;-68
2023/07/04 07:53:53;;;;;;;10.02;3.42;;;;;21.60;98510.00;;;;5016010;28;20046;-68
2023/07/04 07:56:22;;;;;;;12.05;3.47;;;;;21.80;98511.00;;;;4998367;28;20104;-68
2023/07/04 07:58:49;;;;;;;18.50;4.07;;;;;21.90;98507.00;;;;4999794;28;20045;-67
2023/07/04 08:01:29;;;;;;;5.90;2.97;;;;;22.00;98510.00;;;;5029669;28;20050;-68
2023/07/04 08:03:56;;;;;;;6.22;3.03;;;;;22.10;98511.00;;;;5030368;28;20429;-69
2023/07/04 08:06:26;;;;;;;5.93;3.17;;;;;22.20;98513.00;;;;5030264;28;20053;-69
2023/07/04 08:08:54;;;;;;;7.70;3.20;;;;;22.30;98509.00;;;;5013802;28;20050;-68
2023/07/04 08:11:22;;;;;;;8.85;3.38;;;;;22.40;98512.00;;;;5014628;28;20129;-68
2023/07/04 08:13:49;;;;;;;6.10;3.10;;;;;22.50;98513.00;;;;5030010;28;20387;-67
2023/07/04 08:16:19;;;;;;;7.53;3.30;;;;;22.60;98517.00;;;;5014815;28;20428;-69
2023/07/04 08:18:46;;;;;;;6.10;3.10;;;;;22.70;98513.00;;;;5030355;28;20473;-69
2023/07/04 08:21:13;;;;;;;5.25;2.60;;;;;22.80;98511.00;;;;5014205;28;20038;-68
2023/07/04 08:23:40;;;;;;;5.75;3.10;;;;;22.80;98520.00;;;;5029688;28;20049;-67
2023/07/04 08:26:06;;;;;;;6.22;2.55;;;;;22.80;98512.00;;;;5013203;28;20141;-67
2023/07/04 08:28:33;;;;;;;6.20;3.15;;;;;22.80;98514.00;;;;5030308;28;20060;-67
2023/07/04 08:31:08;;;;;;;9.38;3.83;;;;;22.80;98520.00;;;;5030092;28;20414;-68
2023/07/04 08:33:35;;;;;;;11.52;4.22;;;;;22.80;98517.00;;;;5014176;28;20045;-67
2023/07/04 08:36:05;;;;;;;8.27;2.92;;;;;22.90;98512.00;;;;5013302;28;20074;-68
2023/07/04 08:38:32;;;;;;;8.10;3.13;;;;;23.00;98519.00;;;;5015554;28;20045;-67
2023/07/04 08:41:00;;;;;;;6.55;2.85;;;;;23.00;98523.00;;;;5013840;28;20129;-68
2023/07/04 08:43:53;;;;;;;8.48;2.90;;;;;23.00;98516.00;;;;5012884;28;20041;-68
2023/07/04 08:46:20;;;;;;;4.43;2.53;;;;;22.80;98517.00;;;;5014059;28;20401;-68
2023/07/04 08:48:48;;;;;;;6.38;2.78;;;;;22.80;98522.00;;;;5013991;28;20434;-68
2023/07/04 08:51:33;;;;;;;5.07;3.03;;;;;22.80;98521.00;;;;5028019;28;20137;-68
2023/07/04 08:54:03;;;;;;;7.45;2.83;;;;;22.90;98517.00;;;;5014049;28;20069;-67
2023/07/04 08:56:34;;;;;;;5.57;2.75;;;;;23.00;98525.00;;;;5023006;28;20047;-68
2023/07/04 08:59:23;;;;;;;6.85;2.90;;;;;23.10;98520.00;;;;4993267;28;20050;-67
2023/07/04 09:02:14;;;;;;;4.13;2.78;;;;;23.10;98515.00;;;;4993076;28;20458;-68
2023/07/04 09:05:04;;;;;;;8.20;2.70;;;;;23.00;98518.00;;;;4994037;28;20507;-68
2023/07/04 09:07:49;;;;;;;4.47;2.88;;;;;23.00;98522.00;;;;5009390;28;20053;-67
2023/07/04 09:10:49;;;;;;;7.32;3.22;;;;;23.20;98531.00;;;;4993528;28;20050;-70
2023/07/04 09:13:25;;;;;;;5.65;2.58;;;;;23.20;98526.00;;;;4993858;28;20561;-68
2023/07/04 09:15:55;;;;;;;8.85;3.15;;;;;23.30;98525.00;;;;4992618;28;20047;-67
2023/07/04 09:18:37;;;;;;;3.92;2.33;;;;;23.40;98520.00;;;;5008850;28;20495;-68
2023/07/04 09:21:16;;;;;;;4.65;2.53;;;;;23.60;98527.00;;;;5008743;28;20461;-67
2023/07/04 09:23:45;;;;;;;5.00;3.03;;;;;23.60;98527.00;;;;5008775;28;20046;-66
2023/07/04 09:26:16;;;;;;;5.68;2.80;;;;;23.60;98522.00;;;;4992521;28;20050;-66
2023/07/04 09:28:44;;;;;;;5.55;3.15;;;;;23.70;98522.00;;;;4992410;28;20449;-67
2023/07/04 09:31:29;;;;;;;4.35;2.70;;;;;23.90;98527.00;;;;5008006;28;20122;-65
2023/07/04 09:34:00;;;;;;;6.50;3.17;;;;;23.90;98520.00;;;;4993453;28;20050;-66
2023/07/04 09:36:32;;;;;;;5.15;2.83;;;;;24.00;98519.00;;;;5008898;28;20054;-68
2023/07/04 09:39:04;;;;;;;5.30;3.05;;;;;24.10;98518.00;;;;5007782;28;20056;-67
2023/07/04 09:41:36;;;;;;;5.03;3.30;;;;;24.20;98517.00;;;;4991828;28;20050;-67
2023/07/04 09:44:27;;;;;;;3.33;2.92;;;;;24.20;98520.00;;;;4990976;28;20046;-66
2023/07/04 09:47:01;;;;;;;5.15;3.00;;;;;24.30;98525.00;;;;4993383;28;20130;-67
2023/07/04 09:49:30;;;;;;;7.55;3.22;;;;;24.20;98516.00;;;;4993246;28;20050;-67
2023/07/04 09:52:01;;;;;;;7.32;3.95;;;;;24.30;98524.00;;;;5008429;28;20046;-67
2023/07/04 09:54:32;;;;;;;6.43;3.30;;;;;24.50;98523.00;;;;4992553;28;20518;-67
2023/07/04 09:57:32;;;;;;;5.43;3.05;;;;;24.70;98525.00;;;;4992754;28;20104;-67
2023/07/04 10:00:15;;;;;;;4.93;2.90;;;;;24.70;98524.00;;;;4984081;28;20050;-67
2023/07/04 10:02:43;;;;;;;4.35;2.92;;;;;24.80;98517.00;;;;4992663;28;20061;-67
2023/07/04 10:05:14;;;;;;;6.10;2.92;;;;;24.80;98521.00;;;;4992019;28;20137;-67
2023/07/04 10:07:40;;;;;;;4.72;3.10;;;;;24.90;98523.00;;;;4993326;28;20392;-67
2023/07/04 10:10:12;;;;;;;5.38;2.97;;;;;25.00;98515.00;;;;5007464;28;20050;-67
2023/07/04 10:12:44;;;;;;;5.22;3.33;;;;;25.00;98517.00;;;;4992970;28;20042;-68
2023/07/04 10:15:23;;;;;;;6.15;3.22;;;;;25.10;98515.00;;;;5008137;28;20077;-68
2023/07/04 10:17:49;;;;;;;3.65;2.72;;;;;25.00;98522.00;;;;5008071;28;20058;-67
2023/07/04 10:20:16;;;;;;;6.72;3.38;;;;;24.90;98514.00;;;;4991246;28;20069;-67
2023/07/04 10:22:51;;;;;;;4.10;3.33;;;;;24.90;98520.00;;;;4991494;28;20042;-66
2023/07/04 10:25:25;;;;;;;5.70;3.17;;;;;24.80;98514.00;;;;5007642;28;20038;-67
2023/07/04 10:27:55;;;;;;;4.60;3.30;;;;;24.90;98522.00;;;;5007765;28;20431;-66
2023/07/04 10:30:29;;;;;;;5.05;3.20;;;;;24.80;98513.00;;;;4992211;28;20117;-66
2023/07/04 10:33:24;;;;;;;3.72;2.90;;;;;24.70;98513.00;;;;5007532;28;20046;-66
2023/07/04 10:35:51;;;;;;;6.97;3.88;;;;;24.70;98515.00;;;;4992593;28;20491;-66
2023/07/04 10:38:38;;;;;;;5.80;3.55;;;;;24.80;98511.00;;;;4991322;28;20137;-66
2023/07/04 10:41:22;;;;;;;5.20;3.78;;;;;24.90;98519.00;;;;5007032;28;20054;-66
2023/07/04 10:43:56;;;;;;;5.07;3.28;;;;;24.80;98509.00;;;;4991545;28;20050;-66
2023/07/04 10:46:25;;;;;;;7.30;3.38;;;;;24.90;98517.00;;;;5007778;28;20046;-67
2023/07/04 10:49:01;;;;;;;4.25;3.10;;;;;24.90;98516.00;;;;4991583;28;20046;-66
2023/07/04 10:51:36;;;;;;;5.70;3.17;;;;;24.90;98504.00;;;;5008240;28;20046;-66
2023/07/04 10:54:04;;;;;;;5.32;3.28;;;;;25.10;98507.00;;;;4992659;28;20046;-68
2023/07/04 10:56:34;;;;;;;5.68;3.90;;;;;25.10;98512.00;;;;5007518;28;20060;-66
2023/07/04 10:59:13;;;;;;;5.80;3.63;;;;;25.10;98500.00;;;;5007224;28;20511;-68
2023/07/04 11:01:44;;;;;;;6.88;3.72;;;;;25.10;98500.00;;;;4992774;28;20414;-67
2023/07/04 11:04:18;;;;;;;4.47;3.13;;;;;25.10;98482.00;;;;5007628;28;20082;-68
2023/07/04 11:06:55;;;;;;;4.28;3.67;;;;;25.20;98486.00;;;;4992381;28;20121;-67
2023/07/04 11:09:22;;;;;;;4.78;3.30;;;;;25.20;98479.00;;;;4992420;28;20130;-68
2023/07/04 11:11:50;;;;;;;6.15;3.90;;;;;25.30;98484.00;;;;5009042;28;20442;-67
2023/07/04 11:14:26;;;;;;;6.57;3.45;;;;;25.50;98490.00;;;;4993458;28;20066;-67
2023/07/04 11:16:56;;;;;;;8.40;3.67;;;;;25.60;98489.00;;;;4997518;28;20042;-66
2023/07/04 11:19:28;;;;;;;7.85;3.65;;;;;25.50;98487.00;;;;5011921;28;20113;-66
2023/07/04 11:22:04;;;;;;;7.63;3.72;;;;;25.60;98484.00;;;;4996308;28;20046;-67
2023/07/04 11:24:43;;;;;;;5.18;3.17;;;;;25.90;98483.00;;;;4996198;28;20050;-67
2023/07/04 11:27:24;;;;;;;6.50;3.80;;;;;26.00;98481.00;;;;4997105;28;20499;-67
2023/07/04 11:29:52;;;;;;;7.30;3.63;;;;;26.20;98476.00;;;;5010702;28;20125;-66
2023/07/04 11:32:37;;;;;;;7.93;4.28;;;;;26.60;98482.00;;;;4995925;28;20053;-68
2023/07/04 11:35:09;;;;;;;7.38;3.47;;;;;26.80;98476.00;;;;4996060;28;20127;-67
2023/07/04 11:37:42;;;;;;;4.20;3.53;;;;;26.90;98485.00;;;;4994921;28;20410;-66
2023/07/04 11:40:20;;;;;;;6.38;3.47;;;;;26.90;98482.00;;;;4995082;28;20061;-68
2023/07/04 11:42:51;;;;;;;4.35;3.25;;;;;26.80;98481.00;;;;5010917;28;20486;-68
2023/07/04 11:45:22;;;;;;;5.47;3.35;;;;;27.00;98474.00;;;;5010582;28;20089;-67
2023/07/04 11:47:54;;;;;;;6.20;3.75;;;;;27.00;98484.00;;;;4994399;28;20577;-68
2023/07/04 11:50:29;;;;;;;4.97;3.20;;;;;27.00;98471.00;;;;4994122;28;20046;-67
2023/07/04 11:52:57;;;;;;;6.00;3.08;;;;;27.00;98479.00;;;;4994297;28;20521;-67
2023/07/04 11:55:32;;;;;;;4.75;3.15;;;;;26.90;98486.00;;;;4995720;28;20046;-67
2023/07/04 11:58:16;;;;;;;7.15;3.80;;;;;26.70;98474.00;;;;4995766;28;20046;-67
2023/07/04 12:00:43;;;;;;;4.88;3.03;;;;;26.70;98484.00;;;;5010287;28;20503;-67
2023/07/04 12:03:16;;;;;;;6.15;3.55;;;;;26.50;98479.00;;;;5010256;28;20073;-68
2023/07/04 12:06:01;;;;;;;5.75;3.03;;;;;26.40;98478.00;;;;4995268;28;20042;-67
2023/07/04 12:08:30;;;;;;;4.15;2.80;;;;;26.20;98477.00;;;;4994033;28;20069;-67
2023/07/04 12:10:59;;;;;;;9.57;3.70;;;;;26.40;98465.00;;;;4994657;28;20043;-67
2023/07/04 12:13:29;;;;;;;5.22;3.58;;;;;26.50;98465.00;;;;5010197;28;20104;-67
2023/07/04 12:15:57;;;;;;;5.95;3.63;;;;;26.60;98466.00;;;;4994999;28;20065;-67
2023/07/04 12:18:28;;;;;;;5.13;3.80;;;;;26.60;98460.00;;;;4995025;28;20050;-67
2023/07/04 12:20:58;;;;;;;5.63;3.83;;;;;26.80;98456.00;;;;5009421;28;20051;-68
2023/07/04 12:23:25;;;;;;;5.75;3.15;;;;;27.10;98458.00;;;;4993710;28;20097;-67
2023/07/04 12:25:55;;;;;;;5.10;3.90;;;;;27.10;98459.00;;;;4993614;28;20065;-67
2023/07/04 12:28:24;;;;;;;6.05;3.78;;;;;27.10;98457.00;;;;4993477;28;20054;-67
2023/07/04 12:31:01;;;;;;;9.15;5.55;;;;;27.00;98456.00;;;;4994237;28;20431;-66
2023/07/04 12:33:37;;;;;;;5.50;3.80;;;;;27.00;98458.00;;;;4993297;28;20043;-67